Anwaar Alnaser — 5AXD — position and weather

sailwx.info

Track history (hours):
 
Tides and Currents Weather Stations Pressure Air Temp Water Temp Dewpoint Dewpoint Depression Visibility Wind Speed Wind Dir Waves Ship Positions

Anwaar Alnaser

Last reported at 2017-Mar-25 10:15 UTC. Time now 2017-Mar-28 17:54 UTC.
Position N 37°39' E 023°43'.

Length 165 m; draft 8.2 m.

Type: Tanker. MMSI: 642122018.

Date/timePositionNaut miles runAvg speedWind from/ knotsBaromVisibWave heightAir tempDewpointWater temp
2017-Mar-25 10:15N 37°39' E 023°43'912.8
2017-Mar-25 09:33N 37°47' E 023°38'1212.2
2017-Mar-25 08:33N 37°51' E 023°24'1412.5
2017-Mar-25 07:24N 37°54' E 023°06'1 0.0
2017-Mar-23 20:17N 37°55' E 023°05'1 1.7
2017-Mar-23 19:31N 37°54' E 023°06'0 0.1
2017-Mar-23 18:18N 37°54' E 023°06'0 0.0
2017-Mar-23 17:28N 37°54' E 023°06'0 0.1
2017-Mar-23 16:28N 37°54' E 023°06'0 0.0
2017-Mar-23 14:09N 37°54' E 023°06'20 0.6
2017-Mar-22 03:31N 37°51' E 023°32'0 0.0
2017-Mar-22 01:25N 37°51' E 023°32'0 0.1
2017-Mar-22 00:07N 37°51' E 023°32'0 0.0
2017-Mar-21 23:24N 37°51' E 023°32'0 0.0
2017-Mar-21 22:30N 37°51' E 023°32'0 0.0
2017-Mar-21 21:24N 37°51' E 023°32'0 0.0
2017-Mar-21 20:24N 37°51' E 023°32'0 0.0
2017-Mar-21 19:15N 37°51' E 023°32'0 0.0
2017-Mar-21 18:33N 37°51' E 023°32'3 2.2
2017-Mar-21 17:18N 37°51' E 023°35'6 7.7
2017-Mar-21 16:33N 37°48' E 023°41'  
Track history (hours):
 
Tides and Currents Weather Stations Pressure Air Temp Water Temp Dewpoint Dewpoint Depression Visibility Wind Speed Wind Dir Waves Ship Positions

Anwaar Alnaser

Last reported at 2017-Mar-25 10:15 UTC. Time now 2017-Mar-28 17:54 UTC.
Position N 37°39' E 023°43'.

Length 165 m; draft 8.2 m.

Type: Tanker. MMSI: 642122018.

Date/timePositionNaut miles runAvg speedWind from/ knotsBaromVisibWave heightAir tempDewpointWater temp
2017-Mar-25 10:15N 37°39' E 023°43'912.8
2017-Mar-25 09:33N 37°47' E 023°38'1212.2
2017-Mar-25 08:33N 37°51' E 023°24'1412.5
2017-Mar-25 07:24N 37°54' E 023°06'1 0.0
2017-Mar-23 20:17N 37°55' E 023°05'1 1.7
2017-Mar-23 19:31N 37°54' E 023°06'0 0.1
2017-Mar-23 18:18N 37°54' E 023°06'0 0.0
2017-Mar-23 17:28N 37°54' E 023°06'0 0.1
2017-Mar-23 16:28N 37°54' E 023°06'0 0.0
2017-Mar-23 14:09N 37°54' E 023°06'20 0.6
2017-Mar-22 03:31N 37°51' E 023°32'0 0.0
2017-Mar-22 01:25N 37°51' E 023°32'0 0.1
2017-Mar-22 00:07N 37°51' E 023°32'0 0.0
2017-Mar-21 23:24N 37°51' E 023°32'0 0.0
2017-Mar-21 22:30N 37°51' E 023°32'0 0.0
2017-Mar-21 21:24N 37°51' E 023°32'0 0.0
2017-Mar-21 20:24N 37°51' E 023°32'0 0.0
2017-Mar-21 19:15N 37°51' E 023°32'0 0.0
2017-Mar-21 18:33N 37°51' E 023°32'3 2.2
2017-Mar-21 17:18N 37°51' E 023°35'6 7.7
2017-Mar-21 16:33N 37°48' E 023°41'  

Dump ship's entire track history